createdAt,value
2022-09-27T00:00:19.169Z,10.38
2022-09-27T00:01:19.213Z,10.39
2022-09-27T00:02:19.207Z,10.41
2022-09-27T00:03:19.132Z,10.41
2022-09-27T00:04:19.151Z,10.39
2022-09-27T00:05:19.159Z,10.41
2022-09-27T00:06:19.143Z,10.41
2022-09-27T00:07:19.142Z,10.41
2022-09-27T00:08:19.141Z,10.38
2022-09-27T00:09:19.123Z,10.42
2022-09-27T00:10:19.202Z,10.41
2022-09-27T00:11:19.180Z,10.42
2022-09-27T00:12:19.214Z,10.41
2022-09-27T00:13:19.204Z,10.42
2022-09-27T00:14:19.257Z,10.41
2022-09-27T00:15:19.336Z,10.42
2022-09-27T00:16:19.375Z,10.41
2022-09-27T00:17:19.352Z,10.42
2022-09-27T00:18:19.433Z,10.42
2022-09-27T00:19:19.438Z,10.42
2022-09-27T00:20:19.430Z,10.42
2022-09-27T00:21:19.404Z,10.42
2022-09-27T00:22:19.457Z,10.42
2022-09-27T00:23:19.462Z,10.42
2022-09-27T00:24:19.444Z,10.43
2022-09-27T00:25:19.504Z,10.42
2022-09-27T00:26:19.558Z,10.42
2022-09-27T00:27:19.605Z,10.42
2022-09-27T00:28:19.677Z,10.43
2022-09-27T00:29:19.735Z,10.42
2022-09-27T00:30:19.786Z,10.42
2022-09-27T00:31:19.884Z,10.41
2022-09-27T00:32:19.800Z,10.42
2022-09-27T00:33:19.821Z,10.42
2022-09-27T00:34:19.865Z,10.42
2022-09-27T00:35:19.930Z,10.43
2022-09-27T00:36:20.007Z,10.45
2022-09-27T00:37:20.005Z,10.41
2022-09-27T00:38:19.978Z,10.41
2022-09-27T00:39:20.038Z,10.43
2022-09-27T00:40:20.234Z,10.42
2022-09-27T00:41:20.106Z,10.43
2022-09-27T00:42:20.080Z,10.42
2022-09-27T00:43:20.116Z,10.42
2022-09-27T00:44:20.167Z,10.43
2022-09-27T00:45:20.192Z,10.42
2022-09-27T00:46:20.272Z,10.42
2022-09-27T00:47:20.179Z,10.42
2022-09-27T00:48:20.209Z,10.43
2022-09-27T00:49:20.290Z,10.43
2022-09-27T00:50:20.281Z,10.42
2022-09-27T00:51:20.292Z,10.43
2022-09-27T00:52:20.293Z,10.42
2022-09-27T00:53:20.290Z,10.43
2022-09-27T00:54:20.334Z,10.43
2022-09-27T00:55:20.360Z,10.43
2022-09-27T00:56:20.333Z,10.42
2022-09-27T00:57:20.403Z,10.42
2022-09-27T00:58:20.515Z,10.41
2022-09-27T00:59:20.492Z,10.42
2022-09-27T01:00:20.553Z,10.42
2022-09-27T01:01:20.675Z,10.42
2022-09-27T01:02:20.710Z,10.43
2022-09-27T01:03:20.736Z,10.43
2022-09-27T01:04:20.728Z,10.43
2022-09-27T01:05:20.703Z,10.42
2022-09-27T01:06:20.776Z,10.41
2022-09-27T01:07:20.787Z,10.42
2022-09-27T01:08:20.764Z,10.42
2022-09-27T01:09:20.817Z,10.43
2022-09-27T01:10:20.807Z,10.43
2022-09-27T01:11:20.889Z,10.43
2022-09-27T01:12:20.863Z,10.42
2022-09-27T01:13:20.934Z,10.43
2022-09-27T01:14:20.948Z,10.43
2022-09-27T01:15:20.963Z,10.43
2022-09-27T01:16:20.981Z,10.42
2022-09-27T01:17:20.933Z,10.43
2022-09-27T01:18:20.943Z,10.43
2022-09-27T01:19:20.950Z,10.43
2022-09-27T01:20:20.912Z,10.45
2022-09-27T01:21:20.993Z,10.43
2022-09-27T01:22:20.987Z,10.43
2022-09-27T01:23:20.971Z,10.42
2022-09-27T01:24:21.033Z,10.42
2022-09-27T01:25:21.111Z,10.43
2022-09-27T01:26:21.099Z,10.42
2022-09-27T01:27:21.152Z,10.42
2022-09-27T01:28:21.230Z,10.43
2022-09-27T01:29:21.268Z,10.41
2022-09-27T01:30:21.350Z,10.42
2022-09-27T01:31:21.401Z,10.42
2022-09-27T01:32:21.360Z,10.42
2022-09-27T01:33:21.421Z,10.42
2022-09-27T01:34:21.502Z,10.42
2022-09-27T01:35:21.472Z,10.42
2022-09-27T01:36:21.544Z,10.43
2022-09-27T01:37:21.601Z,10.45
2022-09-27T01:38:21.662Z,10.43
2022-09-27T01:39:21.792Z,10.45
2022-09-27T01:40:22.552Z,10.45
2022-09-27T01:41:21.837Z,10.45
2022-09-27T01:42:22.480Z,10.46
2022-09-27T01:43:21.864Z,10.45
2022-09-27T01:44:21.879Z,10.46
2022-09-27T01:45:21.861Z,10.45
2022-09-27T01:46:21.980Z,10.46
2022-09-27T01:47:22.038Z,10.48
2022-09-27T01:48:22.028Z,10.48
2022-09-27T01:49:22.046Z,10.48
2022-09-27T01:50:22.040Z,10.49
2022-09-27T01:51:22.027Z,10.48
2022-09-27T01:52:22.131Z,10.46
2022-09-27T01:53:22.140Z,10.45
2022-09-27T01:54:22.149Z,10.45
2022-09-27T01:55:22.139Z,10.46
2022-09-27T01:56:22.188Z,10.46
2022-09-27T01:57:22.256Z,10.45
2022-09-27T01:58:22.298Z,10.45
2022-09-27T01:59:22.396Z,10.42
2022-09-27T02:00:22.392Z,10.43
2022-09-27T02:01:22.516Z,10.43
2022-09-27T02:02:22.494Z,10.43
2022-09-27T02:03:22.516Z,10.42
2022-09-27T02:04:22.482Z,10.43
2022-09-27T02:05:22.523Z,10.45
2022-09-27T02:06:22.541Z,10.45
2022-09-27T02:07:22.511Z,10.45
2022-09-27T02:08:22.599Z,10.46
2022-09-27T02:09:22.615Z,10.45
2022-09-27T02:10:22.703Z,10.45
2022-09-27T02:11:22.703Z,10.45
2022-09-27T02:12:22.693Z,10.43
2022-09-27T02:13:22.770Z,10.43
2022-09-27T02:14:22.824Z,10.43
2022-09-27T02:15:22.822Z,10.42
2022-09-27T02:16:22.988Z,10.42
2022-09-27T02:17:22.878Z,10.42
2022-09-27T02:18:22.959Z,10.41
2022-09-27T02:19:22.980Z,10.42
2022-09-27T02:20:22.994Z,10.41
2022-09-27T02:21:23.044Z,10.39
2022-09-27T02:22:23.079Z,10.41
2022-09-27T02:23:23.175Z,10.39
2022-09-27T02:24:23.184Z,10.41
2022-09-27T02:25:23.199Z,10.39
2022-09-27T02:26:23.245Z,10.39
2022-09-27T02:27:23.249Z,10.42
2022-09-27T02:28:23.279Z,10.39
2022-09-27T02:29:23.266Z,10.39
2022-09-27T02:30:23.451Z,10.38
2022-09-27T02:31:23.446Z,10.39
2022-09-27T02:32:23.394Z,10.41
2022-09-27T02:33:23.452Z,10.38
2022-09-27T02:34:24.361Z,10.41
2022-09-27T02:35:23.536Z,10.38
2022-09-27T02:36:23.632Z,10.36
2022-09-27T02:37:23.653Z,10.34
2022-09-27T02:38:23.637Z,10.33
2022-09-27T02:39:23.710Z,10.34
2022-09-27T02:40:23.802Z,10.34
2022-09-27T02:41:23.781Z,10.33
2022-09-27T02:42:23.779Z,10.31
2022-09-27T02:43:23.791Z,10.31
2022-09-27T02:44:23.804Z,10.31
2022-09-27T02:45:23.821Z,10.33
2022-09-27T02:46:23.984Z,10.30
2022-09-27T02:47:23.851Z,10.30
2022-09-27T02:48:23.902Z,10.28
2022-09-27T02:49:23.943Z,10.25
2022-09-27T02:50:23.956Z,10.25
2022-09-27T02:51:24.005Z,10.24
2022-09-27T02:52:23.965Z,10.24
2022-09-27T02:53:24.042Z,10.24
2022-09-27T02:54:24.060Z,10.23
2022-09-27T02:55:24.094Z,10.24
2022-09-27T02:56:24.149Z,10.25
2022-09-27T02:57:24.125Z,10.24
2022-09-27T02:58:24.127Z,10.23
2022-09-27T02:59:24.114Z,10.23
2022-09-27T03:00:24.152Z,10.24
2022-09-27T03:01:24.235Z,10.24
2022-09-27T03:37:08.036Z,10.13
2022-09-27T03:37:57.568Z,10.12
2022-09-27T03:39:13.573Z,10.13
2022-09-27T03:39:57.661Z,10.12
2022-09-27T03:40:57.749Z,10.12
2022-09-27T03:41:57.701Z,10.10
2022-09-27T03:42:57.752Z,10.10
2022-09-27T03:43:57.757Z,10.10
2022-09-27T03:44:57.779Z,10.12
2022-09-27T03:45:57.875Z,10.10
2022-09-27T03:46:57.861Z,10.09
2022-09-27T03:47:57.872Z,10.09
2022-09-27T03:48:57.865Z,10.07
2022-09-27T03:49:57.855Z,10.06
2022-09-27T03:50:57.922Z,10.06
2022-09-27T03:51:57.943Z,10.06
2022-09-27T03:52:58.004Z,10.06
2022-09-27T03:53:58.085Z,10.06
2022-09-27T03:55:01.975Z,10.06
2022-09-27T03:55:58.093Z,10.05
2022-09-27T03:56:58.076Z,10.06
2022-09-27T03:57:58.127Z,10.07
2022-09-27T03:58:58.189Z,10.07
2022-09-27T03:59:58.197Z,10.06
2022-09-27T04:00:58.202Z,10.06
2022-09-27T04:01:58.206Z,10.05
2022-09-27T04:02:58.315Z,10.06
2022-09-27T04:03:58.294Z,10.03
2022-09-27T04:04:58.271Z,10.02
2022-09-27T04:05:58.297Z,10.02
2022-09-27T04:06:58.336Z,10.00
2022-09-27T04:07:58.362Z,10.00
2022-09-27T04:08:58.359Z,10.02
2022-09-27T04:09:58.416Z,10.00
2022-09-27T04:10:58.437Z,10.00
2022-09-27T04:11:58.435Z,10.00
2022-09-27T04:12:58.439Z,9.97
2022-09-27T04:13:58.475Z,9.99
2022-09-27T04:14:58.469Z,9.97
2022-09-27T04:15:58.502Z,9.95
2022-09-27T04:16:58.588Z,9.95
2022-09-27T04:17:58.579Z,9.97
2022-09-27T04:18:58.669Z,9.92
2022-09-27T04:19:58.655Z,9.94
2022-09-27T04:20:58.640Z,9.92
2022-09-27T04:21:58.689Z,9.91
2022-09-27T04:22:58.730Z,9.92
2022-09-27T04:23:58.821Z,9.90
2022-09-27T04:24:58.828Z,9.90
2022-09-27T04:25:58.818Z,9.91
2022-09-27T04:26:58.801Z,9.90
2022-09-27T04:27:58.888Z,9.90
2022-09-27T04:28:58.915Z,9.88
2022-09-27T04:29:58.921Z,9.88
2022-09-27T04:30:59.013Z,9.87
2022-09-27T04:31:58.991Z,9.87
2022-09-27T04:32:58.980Z,9.84
2022-09-27T04:33:59.016Z,9.85
2022-09-27T04:34:59.022Z,9.84
2022-09-27T04:35:59.114Z,9.81
2022-09-27T04:36:59.174Z,9.81
2022-09-27T04:37:59.184Z,9.77
2022-09-27T04:38:59.224Z,9.74
2022-09-27T04:39:59.226Z,9.76
2022-09-27T04:40:59.364Z,9.74
2022-09-27T04:41:59.334Z,9.74
2022-09-27T04:42:59.285Z,9.73
2022-09-27T04:43:59.655Z,9.76
2022-09-27T04:44:59.336Z,9.74
2022-09-27T04:45:59.392Z,9.76
2022-09-27T04:46:59.478Z,9.76
2022-09-27T04:47:59.415Z,9.76
2022-09-27T04:48:59.437Z,9.77
2022-09-27T04:49:59.494Z,9.76
2022-09-27T04:50:59.567Z,9.80
2022-09-27T04:51:59.638Z,9.77
2022-09-27T04:52:59.678Z,9.80
2022-09-27T04:53:59.696Z,9.80
2022-09-27T04:54:59.724Z,9.81
2022-09-27T04:55:59.709Z,9.77
2022-09-27T04:56:59.790Z,9.77
2022-09-27T04:57:59.788Z,9.77
2022-09-27T04:58:59.830Z,9.77
2022-09-27T04:59:59.860Z,9.80
2022-09-27T05:01:00.006Z,9.82
2022-09-27T05:01:59.910Z,9.80
2022-09-27T05:02:59.937Z,9.77
2022-09-27T05:03:59.951Z,9.77
2022-09-27T05:04:59.952Z,9.80
2022-09-27T05:05:59.971Z,9.80
2022-09-27T05:06:59.945Z,9.77
2022-09-27T05:07:59.972Z,9.77
2022-09-27T05:09:00.011Z,9.80
2022-09-27T05:10:00.061Z,9.76
2022-09-27T05:11:00.087Z,9.76
2022-09-27T05:12:00.044Z,9.74
2022-09-27T05:13:00.094Z,9.74
2022-09-27T05:14:00.108Z,9.74
2022-09-27T05:15:00.178Z,9.72
2022-09-27T05:16:00.163Z,9.73
2022-09-27T05:17:00.295Z,9.73
2022-09-27T05:18:00.255Z,9.72
2022-09-27T05:19:00.324Z,9.72
2022-09-27T05:20:00.338Z,9.70
2022-09-27T05:21:00.767Z,9.72
2022-09-27T05:22:00.408Z,9.70
2022-09-27T05:23:00.446Z,9.70
2022-09-27T05:24:00.366Z,9.70
2022-09-27T05:25:00.367Z,9.70
2022-09-27T05:26:00.411Z,9.69
2022-09-27T05:27:00.456Z,9.64
2022-09-27T05:28:00.438Z,9.66
2022-09-27T05:29:00.405Z,9.64
2022-09-27T05:30:00.446Z,9.64
2022-09-27T05:31:00.490Z,9.64
2022-09-27T05:32:00.479Z,9.63
2022-09-27T05:33:00.507Z,9.63
2022-09-27T05:34:00.497Z,9.59
2022-09-27T05:35:00.526Z,9.62
2022-09-27T05:36:00.571Z,9.62
2022-09-27T05:37:00.558Z,9.62
2022-09-27T05:38:00.584Z,9.62
2022-09-27T05:39:00.568Z,9.58
2022-09-27T05:40:08.521Z,9.59
2022-09-27T05:41:00.740Z,9.59
2022-09-27T05:42:00.674Z,9.59
2022-09-27T05:43:00.699Z,9.62
2022-09-27T05:44:00.700Z,9.62
2022-09-27T05:45:00.750Z,9.58
2022-09-27T05:46:00.924Z,9.59
2022-09-27T05:47:00.821Z,9.56
2022-09-27T05:48:00.871Z,9.58
2022-09-27T05:49:00.914Z,9.56
2022-09-27T05:50:00.941Z,9.58
2022-09-27T05:51:00.956Z,9.56
2022-09-27T05:52:01.101Z,9.56
2022-09-27T05:53:01.020Z,9.58
2022-09-27T05:54:01.071Z,9.56
2022-09-27T05:55:01.069Z,9.56
2022-09-27T05:56:01.073Z,9.56
2022-09-27T05:57:01.120Z,9.56
2022-09-27T05:58:01.177Z,9.62
2022-09-27T05:59:01.212Z,9.58
2022-09-27T06:00:01.208Z,9.58
2022-09-27T06:01:01.225Z,9.59
2022-09-27T06:02:01.315Z,9.58
2022-09-27T06:03:01.259Z,9.58
2022-09-27T06:04:01.231Z,9.59
2022-09-27T06:05:01.225Z,9.58
2022-09-27T06:06:01.305Z,9.63
2022-09-27T06:07:01.380Z,9.64
2022-09-27T06:08:01.385Z,9.62
2022-09-27T06:09:01.670Z,9.62
2022-09-27T06:10:01.476Z,9.62
2022-09-27T06:11:01.495Z,9.64
2022-09-27T06:12:01.474Z,9.67
2022-09-27T06:13:01.513Z,9.66
2022-09-27T06:14:01.530Z,9.64
2022-09-27T06:15:01.587Z,9.64
2022-09-27T06:16:01.608Z,9.66
2022-09-27T06:17:01.702Z,9.66
2022-09-27T06:18:01.653Z,9.67
2022-09-27T06:19:01.712Z,9.67
2022-09-27T06:20:01.669Z,9.70
2022-09-27T06:21:01.731Z,9.72
2022-09-27T06:22:01.808Z,9.73
2022-09-27T06:23:01.812Z,9.77
2022-09-27T06:24:01.864Z,9.77
2022-09-27T06:25:01.841Z,9.73
2022-09-27T06:26:01.879Z,9.74
2022-09-27T06:27:01.840Z,9.74
2022-09-27T06:28:01.834Z,9.76
2022-09-27T06:29:01.822Z,9.81
2022-09-27T06:30:01.912Z,9.82
2022-09-27T06:31:01.975Z,9.82
2022-09-27T06:32:01.912Z,9.87
2022-09-27T06:33:01.966Z,9.95
2022-09-27T06:34:01.985Z,9.94
2022-09-27T06:35:01.982Z,9.91
2022-09-27T06:36:02.025Z,9.94
2022-09-27T06:37:02.074Z,9.95
2022-09-27T06:38:02.164Z,9.94
2022-09-27T06:39:02.252Z,9.95
2022-09-27T06:40:02.228Z,9.90
2022-09-27T06:41:02.216Z,9.91
2022-09-27T06:42:02.193Z,9.95
2022-09-27T06:43:02.203Z,9.90
2022-09-27T06:44:02.220Z,9.91
2022-09-27T06:45:02.260Z,9.91
2022-09-27T06:46:02.286Z,9.88
2022-09-27T06:47:02.288Z,9.85
2022-09-27T06:48:02.334Z,9.84
2022-09-27T06:49:02.386Z,9.88
2022-09-27T06:50:02.445Z,9.90
2022-09-27T06:51:03.327Z,9.91
2022-09-27T06:52:02.559Z,9.92
2022-09-27T06:53:02.565Z,9.87
2022-09-27T06:54:02.625Z,9.88
2022-09-27T06:55:02.678Z,9.85
2022-09-27T06:56:02.713Z,9.84
2022-09-27T06:57:02.906Z,9.84
2022-09-27T06:58:02.737Z,9.82
2022-09-27T06:59:02.768Z,9.80
2022-09-27T07:00:02.798Z,9.82
2022-09-27T07:01:02.886Z,9.85
2022-09-27T07:02:02.974Z,9.90
2022-09-27T07:03:02.974Z,9.84
2022-09-27T07:04:02.969Z,9.82
2022-09-27T07:05:02.970Z,9.81
2022-09-27T07:06:03.027Z,9.82
2022-09-27T07:07:03.259Z,9.88
2022-09-27T07:08:03.104Z,9.94
2022-09-27T07:09:03.069Z,9.94
2022-09-27T07:10:07.644Z,9.91
2022-09-27T07:11:03.159Z,9.92
2022-09-27T07:12:03.137Z,9.91
2022-09-27T07:13:03.131Z,9.92
2022-09-27T07:14:03.141Z,9.88
2022-09-27T07:15:03.152Z,9.91
2022-09-27T07:16:03.327Z,9.99
2022-09-27T07:17:03.202Z,10.06
2022-09-27T07:18:03.335Z,10.10
2022-09-27T07:19:03.296Z,10.10
2022-09-27T07:20:03.496Z,10.07
2022-09-27T07:21:03.433Z,10.09
2022-09-27T07:22:03.392Z,10.07
2022-09-27T07:23:03.477Z,10.07
2022-09-27T07:24:03.474Z,10.09
2022-09-27T07:25:03.474Z,10.09
2022-09-27T07:26:03.504Z,10.10
2022-09-27T07:27:03.565Z,10.12
2022-09-27T07:28:03.587Z,10.07
2022-09-27T07:29:03.615Z,10.13
2022-09-27T07:30:03.656Z,10.13
2022-09-27T07:31:03.695Z,10.07
2022-09-27T07:32:03.627Z,10.18
2022-09-27T07:33:03.679Z,10.36
2022-09-27T07:34:03.639Z,10.45
2022-09-27T07:35:03.657Z,10.61
2022-09-27T07:36:03.695Z,10.61
2022-09-27T07:37:03.728Z,10.76
2022-09-27T07:38:03.755Z,10.86
2022-09-27T07:39:03.779Z,10.97
2022-09-27T07:40:03.860Z,11.16
2022-09-27T07:41:03.886Z,11.04
2022-09-27T07:42:03.959Z,10.95
2022-09-27T07:43:04.021Z,10.84
2022-09-27T07:44:04.047Z,10.87
2022-09-27T07:45:06.217Z,10.94
2022-09-27T07:46:04.116Z,11.45
2022-09-27T07:47:04.140Z,11.48
2022-09-27T07:48:04.190Z,11.59
2022-09-27T07:49:04.176Z,11.48
2022-09-27T07:50:04.181Z,11.35
2022-09-27T07:51:04.173Z,11.27
2022-09-27T07:52:04.243Z,10.98
2022-09-27T07:53:04.220Z,10.87
2022-09-27T07:54:08.533Z,10.94
2022-09-27T07:55:04.272Z,11.13
2022-09-27T07:56:04.302Z,11.52
2022-09-27T07:57:04.344Z,11.44
2022-09-27T07:58:04.364Z,11.30
2022-09-27T07:59:04.415Z,11.07
2022-09-27T08:00:04.496Z,11.02
2022-09-27T08:01:04.548Z,11.10
2022-09-27T08:02:04.560Z,11.22
2022-09-27T08:03:04.575Z,11.34
2022-09-27T08:04:04.717Z,11.34
2022-09-27T08:05:04.681Z,11.22
2022-09-27T08:06:04.744Z,11.25
2022-09-27T08:07:04.763Z,11.16
2022-09-27T08:08:04.840Z,11.26
2022-09-27T08:09:04.879Z,11.59
2022-09-27T08:10:04.897Z,11.65
2022-09-27T08:11:04.907Z,11.49
2022-09-27T08:12:04.890Z,11.49
2022-09-27T08:13:04.868Z,11.52
2022-09-27T08:14:04.986Z,11.93
2022-09-27T08:15:04.915Z,12.23
2022-09-27T08:16:04.976Z,12.23
2022-09-27T08:17:04.959Z,12.08
2022-09-27T08:18:04.989Z,11.80
2022-09-27T08:19:05.050Z,11.51
2022-09-27T08:20:05.120Z,11.43
2022-09-27T08:21:05.181Z,11.37
2022-09-27T08:22:05.240Z,11.71
2022-09-27T08:23:05.213Z,12.15
2022-09-27T08:24:05.265Z,12.43
2022-09-27T08:25:05.300Z,12.62
2022-09-27T08:26:05.363Z,12.54
2022-09-27T08:27:10.719Z,12.36
2022-09-27T08:28:05.444Z,12.30
2022-09-27T08:29:05.443Z,12.57
2022-09-27T08:30:05.475Z,12.84
2022-09-27T08:31:05.494Z,13.11
2022-09-27T08:32:05.526Z,13.17
2022-09-27T08:33:05.535Z,12.73
2022-09-27T08:34:05.565Z,12.55
2022-09-27T08:35:05.526Z,13.11
2022-09-27T08:36:05.537Z,13.16
2022-09-27T08:37:05.625Z,13.23
2022-09-27T08:38:05.507Z,13.12
2022-09-27T08:39:05.514Z,12.90
2022-09-27T08:40:05.581Z,12.40
2022-09-27T08:41:05.599Z,12.11
2022-09-27T08:42:05.648Z,12.08
2022-09-27T08:43:05.703Z,11.99
2022-09-27T08:44:05.725Z,12.30
2022-09-27T08:45:05.696Z,12.23
2022-09-27T08:46:05.836Z,12.26
2022-09-27T08:47:05.999Z,12.08
2022-09-27T08:48:05.870Z,12.07
2022-09-27T08:49:05.901Z,12.62
2022-09-27T08:50:05.983Z,13.33
2022-09-27T08:51:06.023Z,13.20
2022-09-27T08:52:06.002Z,13.54
2022-09-27T08:53:05.991Z,14.33
2022-09-27T08:54:05.998Z,15.00
2022-09-27T08:55:06.003Z,15.66
2022-09-27T08:56:06.103Z,15.69
2022-09-27T08:57:06.083Z,15.47
2022-09-27T08:58:06.083Z,15.45
2022-09-27T08:59:06.124Z,15.04
2022-09-27T09:00:06.205Z,13.86
2022-09-27T09:01:06.292Z,13.52
2022-09-27T09:02:06.304Z,13.36
2022-09-27T09:03:06.295Z,13.06
2022-09-27T09:04:06.347Z,12.84
2022-09-27T09:05:06.365Z,12.73
2022-09-27T09:06:06.356Z,12.80
2022-09-27T09:07:06.517Z,12.66
2022-09-27T09:08:06.430Z,12.76
2022-09-27T09:09:06.418Z,12.76
2022-09-27T09:10:06.422Z,13.11
2022-09-27T09:11:06.453Z,12.76
2022-09-27T09:12:06.430Z,12.58
2022-09-27T09:13:06.467Z,12.58
2022-09-27T09:14:09.204Z,12.54
2022-09-27T09:15:06.500Z,12.57
2022-09-27T09:16:06.550Z,13.39
2022-09-27T09:17:06.532Z,13.58
2022-09-27T09:18:06.531Z,13.52
2022-09-27T09:19:06.588Z,13.28
2022-09-27T09:20:06.613Z,12.99
2022-09-27T09:21:06.862Z,12.72
2022-09-27T09:22:06.672Z,12.62
2022-09-27T09:23:06.687Z,12.44
2022-09-27T09:24:06.744Z,12.26
2022-09-27T09:25:06.831Z,12.14
2022-09-27T09:26:06.825Z,11.99
2022-09-27T09:27:06.833Z,11.89
2022-09-27T09:28:06.937Z,11.83
2022-09-27T09:29:06.914Z,11.81
2022-09-27T09:30:06.976Z,11.78
2022-09-27T09:31:07.023Z,11.67
2022-09-27T09:32:07.111Z,11.53
2022-09-27T09:33:07.047Z,11.52
2022-09-27T09:34:07.047Z,11.59
2022-09-27T09:35:07.088Z,11.59
2022-09-27T09:36:07.138Z,11.55
2022-09-27T09:37:07.165Z,11.52
2022-09-27T09:38:07.150Z,11.55
2022-09-27T09:39:07.208Z,11.59
2022-09-27T09:40:09.220Z,11.70
2022-09-27T09:41:07.188Z,12.07
2022-09-27T09:42:07.260Z,12.37
2022-09-27T09:43:07.299Z,12.35
2022-09-27T09:44:07.378Z,12.36
2022-09-27T09:45:07.390Z,12.25
2022-09-27T09:46:07.500Z,11.99
2022-09-27T09:47:07.574Z,11.74
2022-09-27T09:48:07.694Z,11.63
2022-09-27T09:49:07.632Z,11.52
2022-09-27T09:50:07.629Z,11.52
2022-09-27T09:51:07.719Z,11.48
2022-09-27T09:52:09.197Z,11.51
2022-09-27T09:53:07.686Z,11.56
2022-09-27T09:54:07.683Z,11.63
2022-09-27T09:55:07.742Z,11.80
2022-09-27T09:56:07.750Z,11.95
2022-09-27T09:57:07.774Z,12.26
2022-09-27T09:58:07.814Z,12.54
2022-09-27T09:59:07.804Z,12.50
2022-09-27T10:00:07.925Z,12.39
2022-09-27T10:01:07.928Z,12.35
2022-09-27T10:02:07.959Z,12.43
2022-09-27T10:03:07.936Z,12.40
2022-09-27T10:04:07.956Z,12.39
2022-09-27T10:05:08.285Z,12.36
2022-09-27T10:06:08.027Z,12.18
2022-09-27T10:07:07.999Z,12.05
2022-09-27T10:08:08.071Z,12.03
2022-09-27T10:09:08.088Z,12.78
2022-09-27T10:10:08.200Z,13.27
2022-09-27T10:11:08.218Z,13.13
2022-09-27T10:12:08.290Z,12.87
2022-09-27T10:13:08.310Z,12.81
2022-09-27T10:14:08.363Z,12.61
2022-09-27T10:15:08.430Z,12.40
2022-09-27T10:16:08.571Z,12.08
2022-09-27T10:17:08.470Z,11.89
2022-09-27T10:18:08.512Z,11.81
2022-09-27T10:19:08.570Z,11.63
2022-09-27T10:20:08.551Z,11.53
2022-09-27T10:21:08.611Z,11.45
2022-09-27T10:22:08.671Z,11.34
2022-09-27T10:23:08.654Z,11.27
2022-09-27T10:24:16.593Z,11.25
2022-09-27T10:25:08.678Z,11.16
2022-09-27T10:26:08.723Z,11.12
2022-09-27T10:27:08.762Z,11.08
2022-09-27T10:28:08.777Z,11.07
2022-09-27T10:29:08.823Z,10.92
2022-09-27T10:31:34.785Z,10.59
2022-09-27T10:32:34.768Z,10.55
2022-09-27T10:33:34.794Z,10.46
2022-09-27T10:34:34.863Z,10.48
2022-09-27T10:35:34.924Z,10.45
2022-09-27T10:36:34.967Z,10.55
2022-09-27T10:37:34.986Z,10.61
2022-09-27T10:38:34.982Z,10.58
2022-09-27T10:39:34.988Z,10.64
2022-09-27T10:40:35.125Z,10.64
2022-09-27T10:41:35.026Z,10.64
2022-09-27T10:42:35.073Z,10.65
2022-09-27T10:43:35.107Z,10.62
2022-09-27T10:44:35.186Z,10.64
2022-09-27T10:45:35.267Z,10.58
2022-09-27T10:46:35.236Z,10.62
2022-09-27T10:47:35.269Z,10.58
2022-09-27T10:48:35.277Z,10.62
2022-09-27T10:49:35.304Z,10.59
2022-09-27T10:50:53.738Z,10.65
2022-09-27T10:51:35.347Z,10.67
2022-09-27T10:52:35.378Z,10.67
2022-09-27T10:53:35.394Z,10.62
2022-09-27T10:54:35.419Z,10.59
2022-09-27T10:55:35.449Z,10.53
2022-09-27T10:56:35.436Z,10.58
2022-09-27T10:57:35.469Z,10.55
2022-09-27T10:58:35.509Z,10.51
2022-09-27T10:59:35.521Z,10.48
2022-09-27T11:00:35.545Z,10.51
2022-09-27T11:01:35.551Z,10.46
2022-09-27T11:02:39.461Z,10.42
2022-09-27T11:03:35.568Z,10.48
2022-09-27T11:04:35.617Z,10.51
2022-09-27T11:05:35.632Z,10.62
2022-09-27T11:06:35.622Z,10.83
2022-09-27T11:07:35.703Z,11.01
2022-09-27T11:08:35.780Z,11.51
2022-09-27T11:09:35.773Z,11.83
2022-09-27T11:10:37.709Z,12.11
2022-09-27T11:11:35.854Z,12.48
2022-09-27T11:12:35.863Z,12.47
2022-09-27T11:13:35.903Z,12.58
2022-09-27T11:14:35.894Z,12.78
2022-09-27T11:15:35.924Z,12.81
2022-09-27T11:16:36.127Z,12.94
2022-09-27T11:17:36.004Z,13.06
2022-09-27T11:18:36.037Z,13.06
2022-09-27T11:19:36.078Z,12.87
2022-09-27T11:20:36.127Z,12.61
2022-09-27T11:21:36.155Z,12.81
2022-09-27T11:22:36.196Z,13.03
2022-09-27T11:23:36.256Z,13.08
2022-09-27T11:24:36.286Z,12.87
2022-09-27T11:25:36.299Z,12.95
2022-09-27T11:26:36.308Z,13.05
2022-09-27T11:27:36.313Z,12.98
2022-09-27T11:28:36.336Z,12.91
2022-09-27T11:29:36.362Z,12.81
2022-09-27T11:30:36.443Z,12.65
2022-09-27T11:31:36.497Z,12.39
2022-09-27T11:32:36.503Z,12.36
2022-09-27T11:33:36.501Z,12.36
2022-09-27T11:34:36.563Z,12.29
2022-09-27T11:35:36.551Z,12.23
2022-09-27T11:36:36.540Z,12.28
2022-09-27T11:37:36.611Z,12.37
2022-09-27T11:38:53.463Z,12.57
2022-09-27T11:39:36.603Z,12.61
2022-09-27T11:40:36.726Z,12.68
2022-09-27T11:41:36.712Z,12.73
2022-09-27T11:42:36.713Z,13.13
2022-09-27T11:43:36.791Z,13.27
2022-09-27T11:44:36.823Z,13.45
2022-09-27T11:46:41.645Z,13.62
2022-09-27T11:47:37.062Z,14.25
2022-09-27T11:48:36.927Z,13.93
2022-09-27T11:49:36.925Z,13.86
2022-09-27T11:50:36.944Z,13.93
2022-09-27T11:51:36.987Z,14.18
2022-09-27T11:52:36.988Z,14.05
2022-09-27T11:53:37.039Z,13.97
2022-09-27T11:54:37.067Z,14.01
2022-09-27T11:55:37.128Z,14.03
2022-09-27T11:56:37.109Z,13.80
2022-09-27T11:57:37.120Z,13.50
2022-09-27T11:58:37.099Z,13.31
2022-09-27T11:59:37.098Z,13.27
2022-09-27T12:00:37.159Z,13.20
2022-09-27T12:01:37.198Z,13.57
2022-09-27T12:02:37.239Z,13.91
2022-09-27T12:03:37.261Z,14.03
2022-09-27T12:04:37.321Z,13.83
2022-09-27T12:05:37.312Z,13.67
2022-09-27T12:06:37.349Z,13.68
2022-09-27T12:07:37.383Z,13.43
2022-09-27T12:08:37.454Z,13.40
2022-09-27T12:09:37.493Z,13.79
2022-09-27T12:10:37.503Z,14.08
2022-09-27T12:11:37.561Z,14.45
2022-09-27T12:12:37.562Z,14.59
2022-09-27T12:13:37.625Z,14.86
2022-09-27T12:14:37.684Z,14.68
2022-09-27T12:15:37.753Z,14.52
2022-09-27T12:16:37.735Z,14.26
2022-09-27T12:17:37.745Z,14.16
2022-09-27T12:18:37.765Z,14.05
2022-09-27T12:19:37.806Z,14.03
2022-09-27T12:20:37.798Z,13.78
2022-09-27T12:21:37.830Z,13.62
2022-09-27T12:22:57.684Z,13.52
2022-09-27T12:23:37.889Z,13.50
2022-09-27T12:24:37.950Z,13.82
2022-09-27T12:25:37.966Z,13.85
2022-09-27T12:26:38.028Z,13.78
2022-09-27T12:27:38.079Z,13.73
2022-09-27T12:28:38.149Z,13.80
2022-09-27T12:29:38.200Z,13.79
2022-09-27T12:30:38.288Z,14.05
2022-09-27T12:31:38.353Z,14.08
2022-09-27T12:32:38.310Z,13.98
2022-09-27T12:33:38.301Z,13.78
2022-09-27T12:34:38.361Z,13.83
2022-09-27T12:35:38.393Z,13.87
2022-09-27T12:36:39.041Z,13.86
2022-09-27T12:37:38.452Z,14.16
2022-09-27T12:38:38.463Z,14.36
2022-09-27T12:39:38.512Z,14.61
2022-09-27T12:40:38.614Z,14.93
2022-09-27T12:41:38.596Z,15.29
2022-09-27T12:42:38.644Z,15.12
2022-09-27T12:43:38.695Z,14.90
2022-09-27T12:44:38.758Z,14.94
2022-09-27T12:45:38.825Z,14.62
2022-09-27T12:46:38.873Z,14.36
2022-09-27T12:47:38.916Z,14.33
2022-09-27T12:48:38.827Z,14.40
2022-09-27T12:49:38.837Z,14.45
2022-09-27T12:50:38.887Z,14.41
2022-09-27T12:51:39.067Z,13.89
2022-09-27T12:52:38.957Z,13.71
2022-09-27T12:53:39.007Z,13.58
2022-09-27T12:54:39.028Z,13.61
2022-09-27T12:55:39.063Z,13.57
2022-09-27T12:56:39.079Z,13.39
2022-09-27T12:57:39.080Z,13.27
2022-09-27T12:58:39.099Z,13.28
2022-09-27T12:59:39.140Z,13.17
2022-09-27T13:00:39.227Z,13.11
2022-09-27T13:01:39.371Z,13.06
2022-09-27T13:02:48.209Z,13.12
2022-09-27T13:03:39.279Z,13.09
2022-09-27T13:04:39.302Z,12.99
2022-09-27T13:05:39.342Z,12.94
2022-09-27T13:06:39.405Z,12.99
2022-09-27T13:07:39.443Z,12.98
2022-09-27T13:08:39.462Z,13.01
2022-09-27T13:09:39.496Z,12.99
2022-09-27T13:10:39.583Z,12.95
2022-09-27T13:11:39.532Z,13.08
2022-09-27T13:12:39.595Z,13.30
2022-09-27T13:13:39.648Z,13.30
2022-09-27T13:14:39.626Z,13.28
2022-09-27T13:15:39.913Z,13.28
2022-09-27T13:16:39.676Z,13.24
2022-09-27T13:17:39.727Z,13.20
2022-09-27T13:18:39.780Z,13.23
2022-09-27T13:19:39.817Z,13.30
2022-09-27T13:20:39.846Z,13.45
2022-09-27T13:21:39.898Z,13.57
2022-09-27T13:22:39.952Z,13.73
2022-09-27T13:23:40.010Z,13.61
2022-09-27T13:24:40.048Z,14.04
2022-09-27T13:25:40.039Z,14.37
2022-09-27T13:26:40.078Z,14.52
2022-09-27T13:27:40.057Z,14.68
2022-09-27T13:28:40.110Z,14.49
2022-09-27T13:29:40.177Z,14.78
2022-09-27T13:30:40.230Z,14.59
2022-09-27T13:31:40.318Z,15.15
2022-09-27T13:32:40.291Z,14.93
2022-09-27T13:33:40.295Z,15.04
2022-09-27T13:34:40.301Z,14.59
2022-09-27T13:35:40.294Z,14.74